Time;durP1;ratioP1;P1;durP2;ratioP2;P2;SDS_P1;SDS_P2;PMS_P1;PMS_P2;Temp;Humidity;BMP_temperature;BMP_pressure;BME280_temperature;BME280_humidity;BME280_pressure;Samples;Min_cycle;Max_cycle;Signal;HPM_P1;HPM_P2
2024/02/07 05:38:39;;;;;;;9.90;5.10;;;;;;;2.59;100.00;98688.88;107940;1260;22655;-50
2024/02/07 05:41:07;;;;;;;14.70;4.50;;;;;;;2.61;100.00;98688.56;108287;1275;22410;-45
2024/02/07 05:43:34;;;;;;;6.30;4.40;;;;;;;2.63;100.00;98688.21;110342;1273;22307;-51
2024/02/07 05:46:02;;;;;;;5.50;3.70;;;;;;;2.66;100.00;98689.78;109613;1274;22346;-51
2024/02/07 05:48:30;;;;;;;5.00;3.50;;;;;;;2.70;100.00;98683.77;110333;1257;22772;-50
2024/02/07 05:50:58;;;;;;;8.30;3.60;;;;;;;2.73;100.00;98682.59;110320;1275;22256;-52
2024/02/07 05:53:25;;;;;;;6.40;3.50;;;;;;;2.77;100.00;98681.57;110253;1275;22388;-51
2024/02/07 05:55:53;;;;;;;4.00;3.30;;;;;;;2.81;100.00;98679.70;110301;1270;22268;-51
2024/02/07 05:58:22;;;;;;;6.00;3.70;;;;;;;2.85;100.00;98677.33;110296;1275;22363;-51
2024/02/07 06:00:50;;;;;;;6.70;3.50;;;;;;;2.89;100.00;98677.35;110123;1270;22348;-51
2024/02/07 06:03:18;;;;;;;7.40;3.80;;;;;;;2.93;100.00;98673.40;110247;1276;23003;-51
2024/02/07 06:05:45;;;;;;;8.50;3.60;;;;;;;2.97;100.00;98674.64;110194;1269;22922;-51
2024/02/07 06:08:13;;;;;;;5.00;3.20;;;;;;;3.02;100.00;98680.34;110151;1271;23306;-50
2024/02/07 06:10:42;;;;;;;7.10;3.50;;;;;;;3.08;100.00;98676.75;110239;1275;22274;-50
2024/02/07 06:13:10;;;;;;;5.00;3.70;;;;;;;3.14;100.00;98677.80;110210;1275;22168;-51
2024/02/07 06:15:38;;;;;;;6.40;3.20;;;;;;;3.21;100.00;98674.73;110277;1275;22951;-52
2024/02/07 06:18:05;;;;;;;6.30;3.70;;;;;;;3.26;100.00;98664.23;110196;1270;22884;-50
2024/02/07 06:20:33;;;;;;;8.00;4.20;;;;;;;3.34;100.00;98664.95;110126;1259;23281;-51
2024/02/07 06:23:01;;;;;;;7.30;3.70;;;;;;;3.42;100.00;98664.80;110134;1275;22309;-51
2024/02/07 06:25:28;;;;;;;7.40;3.50;;;;;;;3.52;100.00;98668.44;110111;1272;23121;-51
2024/02/07 06:27:56;;;;;;;6.80;4.40;;;;;;;3.60;100.00;98662.77;110186;1270;22441;-50
2024/02/07 06:30:23;;;;;;;9.50;3.80;;;;;;;3.69;100.00;98663.13;110166;1275;22319;-52
2024/02/07 06:32:51;;;;;;;8.00;3.30;;;;;;;3.79;100.00;98659.18;110260;1275;22220;-52
2024/02/07 06:35:19;;;;;;;18.20;3.60;;;;;;;3.89;100.00;98664.36;109933;1272;23269;-52
2024/02/07 06:37:46;;;;;;;11.30;4.50;;;;;;;3.98;100.00;98662.48;110141;1268;23596;-52
2024/02/07 06:40:14;;;;;;;6.40;3.70;;;;;;;4.08;100.00;98665.41;110126;1276;22190;-53
2024/02/07 06:42:42;;;;;;;5.70;3.90;;;;;;;4.20;100.00;98656.60;110110;1276;22393;-53
2024/02/07 06:45:09;;;;;;;8.90;4.00;;;;;;;4.33;100.00;98663.67;110199;1275;22910;-52
2024/02/07 06:47:37;;;;;;;7.70;3.90;;;;;;;4.46;100.00;98663.48;110263;1275;22251;-52
2024/02/07 06:50:05;;;;;;;7.00;3.20;;;;;;;4.59;100.00;98670.55;110150;1274;22374;-52
2024/02/07 06:52:33;;;;;;;6.40;3.40;;;;;;;4.71;100.00;98673.11;110033;1270;22446;-47
2024/02/07 06:55:00;;;;;;;5.80;2.90;;;;;;;4.81;100.00;98668.94;110157;1275;22419;-47
2024/02/07 06:57:28;;;;;;;8.00;3.00;;;;;;;4.90;100.00;98664.76;109670;1275;22391;-51
2024/02/07 06:59:56;;;;;;;6.70;3.20;;;;;;;4.98;100.00;98665.95;110095;1259;23209;-47
2024/02/07 07:02:24;;;;;;;6.60;3.40;;;;;;;5.05;100.00;98663.33;110140;1271;22372;-45
2024/02/07 07:04:51;;;;;;;5.50;3.40;;;;;;;5.11;100.00;98664.69;109743;1275;22455;-50
2024/02/07 07:07:22;;;;;;;12.10;5.20;;;;;;;5.21;100.00;98670.01;109650;1273;25078;-51
2024/02/07 07:09:53;;;;;;;25.80;5.00;;;;;;;5.34;100.00;98664.07;109111;1270;22980;-47
2024/02/07 07:12:21;;;;;;;7.40;4.30;;;;;;;5.48;100.00;98662.61;109080;1270;22315;-51
2024/02/07 07:14:49;;;;;;;9.40;4.00;;;;;;;5.60;100.00;98666.18;109996;1273;22438;-51
2024/02/07 07:17:22;;;;;;;4.90;2.90;;;;;;;5.72;100.00;98664.20;109923;1272;22380;-45
2024/02/07 07:19:54;;;;;;;5.10;3.20;;;;;;;5.84;100.00;98656.34;109036;1271;24719;-45
2024/02/07 07:22:24;;;;;;;6.70;3.30;;;;;;;5.95;100.00;98653.68;109398;1273;22839;-45
2024/02/07 07:24:51;;;;;;;7.60;3.50;;;;;;;6.08;100.00;98650.99;110027;1276;22315;-46
2024/02/07 07:27:19;;;;;;;8.20;3.10;;;;;;;6.21;100.00;98648.98;109623;1276;22294;-50
2024/02/07 07:29:46;;;;;;;12.20;3.70;;;;;;;6.34;100.00;98646.96;109517;1272;22543;-50
2024/02/07 07:32:19;;;;;;;5.80;3.30;;;;;;;6.45;100.00;98647.89;109380;1267;22683;-51
2024/02/07 07:34:47;;;;;;;8.30;3.30;;;;;;;6.55;100.00;98655.77;109179;1268;22362;-51
2024/02/07 07:37:15;;;;;;;9.20;3.30;;;;;;;6.61;99.97;98651.55;109888;1270;22237;-46
2024/02/07 07:39:43;;;;;;;7.40;3.00;;;;;;;6.68;99.76;98655.46;109905;1272;22311;-46
2024/02/07 07:42:11;;;;;;;4.40;2.90;;;;;;;6.73;99.48;98652.11;109989;1273;22233;-46
2024/02/07 07:44:40;;;;;;;6.00;3.80;;;;;;;6.79;99.10;98639.91;109669;1276;22427;-50
2024/02/07 07:47:08;;;;;;;3.60;2.90;;;;;;;6.86;99.02;98647.64;109986;1270;22438;-50
2024/02/07 07:49:36;;;;;;;6.50;3.50;;;;;;;6.92;98.98;98642.73;109764;1276;22440;-50
2024/02/07 07:52:04;;;;;;;6.60;3.50;;;;;;;7.00;99.10;98629.29;109857;1276;22504;-50
2024/02/07 07:54:37;;;;;;;7.10;3.00;;;;;;;7.04;98.31;98629.92;109643;1276;22531;-52
2024/02/07 07:57:07;;;;;;;4.70;3.00;;;;;;;7.05;97.40;98628.00;109770;1276;22369;-46
2024/02/07 07:59:35;;;;;;;6.40;3.90;;;;;;;7.04;97.68;98618.84;109941;1270;22408;-51
2024/02/07 08:02:03;;;;;;;5.10;3.50;;;;;;;7.06;97.63;98618.63;109796;1270;22899;-52
2024/02/07 08:04:31;;;;;;;7.40;3.60;;;;;;;7.07;97.13;98622.95;109352;1270;22688;-51
2024/02/07 08:06:59;;;;;;;5.00;2.70;;;;;;;7.09;97.10;98611.14;110127;1270;23478;-50
2024/02/07 08:09:27;;;;;;;5.50;3.00;;;;;;;7.10;97.06;98606.09;109140;1275;22307;-50
2024/02/07 08:11:55;;;;;;;6.60;3.40;;;;;;;7.12;97.00;98622.20;110077;1270;22507;-51
2024/02/07 08:14:22;;;;;;;4.50;3.00;;;;;;;7.17;97.09;98608.25;109694;1259;22553;-52
2024/02/07 08:16:52;;;;;;;6.50;3.50;;;;;;;7.21;97.02;98601.27;109733;1273;22488;-47
2024/02/07 08:19:23;;;;;;;7.00;3.20;;;;;;;7.27;96.80;98601.02;109221;1272;22447;-47
2024/02/07 08:21:52;;;;;;;7.70;3.00;;;;;;;7.32;97.07;98595.75;109423;1270;24192;-46
2024/02/07 08:24:24;;;;;;;7.00;3.60;;;;;;;7.35;96.60;98594.14;109844;1269;23244;-47
2024/02/07 08:26:53;;;;;;;7.40;3.20;;;;;;;7.36;96.41;98600.20;109729;1270;22537;-46
2024/02/07 08:29:21;;;;;;;4.90;3.00;;;;;;;7.41;97.20;98596.67;108535;1272;22536;-47
2024/02/07 08:31:50;;;;;;;4.10;2.70;;;;;;;7.48;96.90;98599.69;109235;1272;22344;-46
2024/02/07 08:34:17;;;;;;;5.40;2.50;;;;;;;7.57;96.83;98604.07;110007;1272;23278;-45
2024/02/07 08:36:46;;;;;;;10.70;3.60;;;;;;;7.70;96.85;98601.09;109916;1272;22468;-45
2024/02/07 08:39:14;;;;;;;8.70;3.00;;;;;;;7.84;95.94;98608.00;109500;1270;22412;-45
2024/02/07 08:41:43;;;;;;;5.40;2.40;;;;;;;7.98;96.00;98607.94;110008;1270;22334;-46
2024/02/07 08:44:11;;;;;;;5.20;3.00;;;;;;;8.13;95.16;98606.84;109466;1270;22381;-47
2024/02/07 08:46:39;;;;;;;6.30;3.20;;;;;;;8.23;94.33;98610.81;109749;1270;22417;-50
2024/02/07 08:49:07;;;;;;;4.80;2.50;;;;;;;8.30;93.97;98604.96;110126;1271;22998;-51
2024/02/07 08:51:34;;;;;;;3.70;2.80;;;;;;;8.37;93.93;98603.83;109748;1269;24592;-50
2024/02/07 08:54:03;;;;;;;4.80;2.30;;;;;;;8.47;92.71;98606.96;109933;1273;23374;-50
2024/02/07 08:56:32;;;;;;;5.70;2.10;;;;;;;8.58;91.30;98617.71;110116;1270;22303;-46
2024/02/07 08:59:05;;;;;;;4.90;2.00;;;;;;;8.71;89.06;98609.81;109409;1273;22633;-50
2024/02/07 09:01:35;;;;;;;3.70;2.40;;;;;;;8.83;87.53;98607.50;109302;1273;22425;-51
2024/02/07 09:04:04;;;;;;;5.50;2.20;;;;;;;8.93;87.68;98599.29;109692;1270;22498;-50
2024/02/07 09:06:31;;;;;;;6.60;2.20;;;;;;;9.02;87.79;98603.97;109538;1270;23770;-51
2024/02/07 09:08:59;;;;;;;10.30;2.50;;;;;;;9.09;86.81;98607.66;109149;1276;22921;-51
2024/02/07 09:11:28;;;;;;;6.20;2.70;;;;;;;9.12;86.35;98604.48;109686;1270;22525;-45
2024/02/07 09:13:56;;;;;;;7.00;2.40;;;;;;;9.16;86.61;98602.11;109821;1270;24208;-46
2024/02/07 09:16:24;;;;;;;5.70;2.60;;;;;;;9.21;86.05;98611.57;109401;1270;22540;-52
2024/02/07 09:18:53;;;;;;;9.90;2.80;;;;;;;9.23;86.30;98595.55;109555;1269;22495;-51
2024/02/07 09:21:22;;;;;;;6.30;2.50;;;;;;;9.26;85.75;98608.00;109547;1270;23333;-47
2024/02/07 09:23:50;;;;;;;9.00;2.90;;;;;;;9.26;85.65;98593.90;109254;1265;22219;-47
2024/02/07 09:26:19;;;;;;;4.50;2.60;;;;;;;9.25;86.26;98580.88;109176;1270;22526;-48
2024/02/07 09:29:02;;;;;;;6.20;2.80;;;;;;;9.30;87.06;98581.65;108679;1275;25291;-52
2024/02/07 09:31:43;;;;;;;5.20;2.80;;;;;;;9.37;86.77;98576.45;108681;1264;22535;-46
2024/02/07 09:34:14;;;;;;;4.60;2.50;;;;;;;9.45;86.47;98570.34;109296;1270;23048;-48
2024/02/07 09:36:48;;;;;;;8.80;2.30;;;;;;;9.49;85.78;98577.21;108957;1271;22561;-48
2024/02/07 09:39:19;;;;;;;7.00;2.40;;;;;;;9.54;86.38;98563.17;109666;1269;22531;-52
2024/02/07 09:46:07;;;;;;;5.30;2.10;;;;;;;9.75;86.02;98559.02;109850;1276;22457;-51
2024/02/07 09:49:18;;;;;;;4.40;2.40;;;;;;;9.81;85.63;98553.83;109915;1275;22962;-50
2024/02/07 09:52:28;;;;;;;7.70;2.50;;;;;;;9.92;85.47;98537.38;109931;1276;22285;-51
2024/02/07 09:55:27;;;;;;;8.70;4.90;;;;;;;10.08;85.55;98535.53;109822;1270;22195;-47
2024/02/07 10:14:16;;;;;;;7.10;3.60;;;;;;;10.83;80.87;98534.94;110095;1277;22238;-47
2024/02/07 10:16:56;;;;;;;5.70;2.90;;;;;;;10.85;81.20;98529.64;110187;1276;23326;-47
2024/02/07 10:19:32;;;;;;;6.10;2.70;;;;;;;10.88;81.36;98530.60;110149;1273;22358;-51
2024/02/07 10:22:00;;;;;;;3.50;2.10;;;;;;;10.92;80.64;98530.81;110068;1275;22288;-46
2024/02/07 10:24:29;;;;;;;4.50;2.30;;;;;;;11.03;80.35;98531.36;109909;1272;22313;-51
2024/02/07 10:27:03;;;;;;;5.30;2.30;;;;;;;11.09;79.80;98527.19;109987;1270;22398;-47
2024/02/07 10:29:40;;;;;;;5.40;2.90;;;;;;;11.10;79.71;98540.77;109473;1272;22544;-53
2024/02/07 10:32:07;;;;;;;30.60;13.40;;;;;;;11.06;78.69;98522.55;109900;1272;22312;-50
2024/02/07 10:34:36;;;;;;;31.10;17.30;;;;;;;11.00;78.76;98526.58;109532;1275;212450;-53
2024/02/07 10:37:04;;;;;;;10.40;5.70;;;;;;;10.95;78.46;98533.19;110028;1273;22339;-46
2024/02/07 10:40:05;;;;;;;56.50;26.80;;;;;;;10.89;78.04;98517.47;110165;1270;22388;-46
2024/02/07 10:42:57;;;;;;;12.60;4.80;;;;;;;10.85;78.95;98514.83;109601;1271;22332;-50
2024/02/07 10:45:24;;;;;;;69.60;35.20;;;;;;;10.78;78.60;98522.52;109869;1272;23387;-45
2024/02/07 10:48:04;;;;;;;7.20;4.60;;;;;;;10.69;78.24;98507.61;110139;1270;23279;-47
2024/02/07 10:50:39;;;;;;;17.60;10.40;;;;;;;10.62;78.04;98521.05;108622;1276;22297;-51
2024/02/07 10:53:11;;;;;;;24.60;15.70;;;;;;;10.57;77.62;98505.84;109836;1276;22405;-45
2024/02/07 10:55:40;;;;;;;12.20;7.00;;;;;;;10.53;77.81;98520.27;110002;1273;22468;-51
2024/02/07 10:58:07;;;;;;;4.40;3.20;;;;;;;10.48;77.78;98505.73;110103;1273;22832;-50
2024/02/07 11:00:35;;;;;;;6.60;3.00;;;;;;;10.45;78.23;98510.20;109919;1275;22835;-52
2024/02/07 11:03:09;;;;;;;11.20;6.70;;;;;;;10.42;78.87;98510.80;110009;1276;22231;-51
2024/02/07 11:05:40;;;;;;;7.70;4.30;;;;;;;10.39;78.99;98518.21;109579;1276;22694;-51
2024/02/07 11:08:09;;;;;;;7.70;4.40;;;;;;;10.38;78.47;98519.98;110026;1273;22176;-53
2024/02/07 11:10:37;;;;;;;5.60;2.70;;;;;;;10.37;78.88;98515.45;109920;1275;22235;-52
2024/02/07 11:13:04;;;;;;;9.80;3.80;;;;;;;10.39;78.94;98510.38;110162;1276;22403;-52
2024/02/07 11:15:34;;;;;;;7.80;4.90;;;;;;;10.39;79.44;98512.45;110162;1273;22483;-52
2024/02/07 11:18:06;;;;;;;12.10;4.50;;;;;;;10.41;79.14;98506.65;110101;1276;22434;-52
2024/02/07 11:20:34;;;;;;;10.20;3.90;;;;;;;10.42;79.16;98508.86;110156;1270;22392;-49
2024/02/07 11:23:04;;;;;;;7.50;3.90;;;;;;;10.44;79.32;98505.71;110033;1276;22467;-51
2024/02/07 11:25:32;;;;;;;10.10;5.00;;;;;;;10.46;79.40;98502.52;110028;1275;22445;-50
2024/02/07 11:28:00;;;;;;;7.00;4.30;;;;;;;10.47;78.96;98498.83;109968;1275;22387;-50
2024/02/07 11:30:28;;;;;;;6.70;2.90;;;;;;;10.47;79.10;98493.58;109968;1270;22487;-50
2024/02/07 11:33:09;;;;;;;6.50;2.50;;;;;;;10.48;78.91;98499.84;109729;1269;23093;-50
2024/02/07 11:35:37;;;;;;;7.00;4.20;;;;;;;10.49;79.00;98502.41;109557;1273;22439;-45
2024/02/07 11:38:16;;;;;;;7.40;3.70;;;;;;;10.49;78.81;98499.61;110086;1276;22537;-46
2024/02/07 11:40:45;;;;;;;6.70;3.50;;;;;;;10.49;79.16;98493.16;109979;1275;22352;-46
2024/02/07 11:43:42;;;;;;;6.70;3.50;;;;;;;10.49;78.65;98487.42;109372;1263;22526;-46
2024/02/07 11:46:09;;;;;;;11.60;5.80;;;;;;;10.49;78.58;98485.15;109836;1273;22385;-45
2024/02/07 11:48:42;;;;;;;23.10;10.50;;;;;;;10.49;79.30;98468.59;109404;1276;22377;-46
2024/02/07 11:51:10;;;;;;;12.70;5.90;;;;;;;10.50;79.60;98465.10;109841;1276;22688;-46
2024/02/07 11:53:42;;;;;;;8.50;4.80;;;;;;;10.51;79.38;98461.42;110092;1276;23238;-47
2024/02/07 11:56:11;;;;;;;11.10;5.30;;;;;;;10.51;79.50;98460.02;110061;1270;22685;-46
2024/02/07 11:58:40;;;;;;;7.90;3.50;;;;;;;10.52;79.21;98457.36;109959;1275;23154;-46
2024/02/07 12:01:09;;;;;;;10.00;3.40;;;;;;;10.54;79.30;98453.62;110010;1276;22319;-54
2024/02/07 12:03:40;;;;;;;5.60;2.90;;;;;;;10.56;79.36;98450.11;110005;1270;22359;-47
2024/02/07 12:06:08;;;;;;;7.80;2.90;;;;;;;10.57;79.24;98444.84;110039;1270;22368;-47
2024/02/07 12:08:37;;;;;;;4.80;2.80;;;;;;;10.59;79.52;98442.34;109958;1276;22201;-47
2024/02/07 12:11:10;;;;;;;3.90;2.30;;;;;;;10.61;80.31;98438.97;110054;1269;22350;-46
2024/02/07 12:13:39;;;;;;;6.70;2.50;;;;;;;10.63;80.97;98434.20;109970;1272;23051;-46
2024/02/07 12:16:09;;;;;;;5.50;2.70;;;;;;;10.64;80.76;98442.20;109678;1276;23461;-47
2024/02/07 12:18:41;;;;;;;4.20;2.70;;;;;;;10.63;80.87;98438.58;110294;1276;22419;-48
2024/02/07 12:21:08;;;;;;;8.30;2.80;;;;;;;10.60;81.22;98431.31;110149;1275;23313;-48
2024/02/07 12:23:36;;;;;;;4.70;2.60;;;;;;;10.57;81.93;98427.21;109929;1276;22848;-46
2024/02/07 12:26:04;;;;;;;9.90;3.40;;;;;;;10.55;82.24;98425.89;110047;1276;22354;-46
2024/02/07 12:28:32;;;;;;;4.80;2.30;;;;;;;10.55;82.36;98427.81;110009;1276;22486;-43
2024/02/07 12:31:00;;;;;;;7.60;2.90;;;;;;;10.57;82.18;98428.11;110135;1276;22287;-48
2024/02/07 12:33:29;;;;;;;6.90;2.80;;;;;;;10.58;82.50;98422.99;110081;1275;23088;-49
2024/02/07 12:36:02;;;;;;;7.90;2.80;;;;;;;10.61;82.54;98426.77;110107;1276;22302;-51
2024/02/07 12:38:31;;;;;;;5.30;3.00;;;;;;;10.62;82.39;98417.68;109789;1275;22325;-46
2024/02/07 12:40:59;;;;;;;4.60;2.40;;;;;;;10.63;82.27;98420.92;109926;1258;23274;-47
2024/02/07 12:43:30;;;;;;;7.30;2.80;;;;;;;10.65;82.35;98422.27;109649;1275;22862;-53
2024/02/07 12:46:00;;;;;;;8.80;2.40;;;;;;;10.65;82.34;98419.46;109889;1270;22400;-51
2024/02/07 12:48:28;;;;;;;3.60;2.30;;;;;;;10.65;82.17;98419.81;110065;1273;23074;-49
2024/02/07 12:50:58;;;;;;;4.10;2.40;;;;;;;10.66;82.17;98415.27;110110;1263;22380;-43
2024/02/07 12:53:26;;;;;;;6.40;3.00;;;;;;;10.63;82.11;98414.66;110059;1276;22751;-46
2024/02/07 12:55:58;;;;;;;;;;;;;;;10.62;81.86;98414.01;108686;1276;22501;-45
2024/02/07 12:58:26;;;;;;;8.90;2.80;;;;;;;10.60;82.12;98407.23;110063;1276;22297;-45
2024/02/07 13:01:01;;;;;;;8.20;3.40;;;;;;;10.59;81.88;98409.73;110065;1276;22392;-45
2024/02/07 13:03:31;;;;;;;4.50;2.70;;;;;;;10.59;81.35;98415.83;110164;1276;22475;-46
2024/02/07 13:05:59;;;;;;;6.80;3.10;;;;;;;10.59;80.99;98419.31;109149;1276;22427;-46
2024/02/07 13:08:27;;;;;;;8.00;3.00;;;;;;;10.60;81.01;98418.95;110078;1276;22797;-45
2024/02/07 13:10:55;;;;;;;4.00;2.30;;;;;;;10.59;81.12;98424.03;110107;1276;22792;-45
2024/02/07 13:13:22;;;;;;;6.40;2.80;;;;;;;10.58;81.26;98419.70;110010;1273;22415;-45
2024/02/07 13:15:50;;;;;;;5.50;2.40;;;;;;;10.55;81.67;98421.19;110106;1276;22448;-45
2024/02/07 13:18:18;;;;;;;4.40;2.90;;;;;;;10.51;81.91;98427.92;110035;1276;22218;-46
2024/02/07 13:20:46;;;;;;;8.90;2.90;;;;;;;10.48;82.18;98424.17;110060;1276;22458;-46
2024/02/07 13:23:14;;;;;;;8.00;2.80;;;;;;;10.45;82.38;98430.38;110159;1276;22286;-50
2024/02/07 13:25:43;;;;;;;7.10;3.50;;;;;;;10.44;82.36;98430.25;110014;1276;22455;-49
2024/02/07 13:28:11;;;;;;;6.20;3.20;;;;;;;10.40;81.83;98417.80;109396;1276;22485;-51
2024/02/07 13:30:39;;;;;;;12.40;3.50;;;;;;;10.37;80.44;98422.58;109995;1270;22964;-45
2024/02/07 13:33:06;;;;;;;7.90;3.00;;;;;;;10.36;80.40;98418.77;110172;1276;22351;-49
2024/02/07 13:35:34;;;;;;;4.50;2.90;;;;;;;10.33;79.98;98419.92;110069;1276;22320;-56
2024/02/07 13:38:02;;;;;;;8.30;3.00;;;;;;;10.30;79.63;98416.69;110095;1276;22300;-46
2024/02/07 13:40:30;;;;;;;5.70;3.20;;;;;;;10.28;79.12;98416.94;109363;1276;22822;-50
2024/02/07 13:42:58;;;;;;;6.10;2.80;;;;;;;10.25;79.17;98418.91;107517;1276;22543;-45
2024/02/07 13:45:25;;;;;;;5.70;3.20;;;;;;;10.20;79.13;98415.20;109113;1276;22463;-49
2024/02/07 13:47:53;;;;;;;6.70;2.80;;;;;;;10.16;79.39;98413.05;110270;1276;22374;-51
2024/02/07 13:50:21;;;;;;;4.90;3.00;;;;;;;10.11;79.86;98402.55;109809;1276;22607;-51
2024/02/07 13:52:48;;;;;;;6.60;3.70;;;;;;;10.08;80.37;98413.95;108600;1276;22323;-47
2024/02/07 13:55:16;;;;;;;6.70;2.80;;;;;;;10.05;80.92;98412.66;106913;1276;22533;-47
2024/02/07 13:57:45;;;;;;;6.50;3.60;;;;;;;10.03;81.25;98403.83;107950;1276;22323;-47
2024/02/07 14:00:15;;;;;;;6.00;3.20;;;;;;;10.01;81.86;98403.17;108343;1276;23138;-52
2024/02/07 14:02:43;;;;;;;9.10;3.70;;;;;;;9.98;82.32;98406.24;108318;1276;22520;-50
2024/02/07 14:05:12;;;;;;;21.00;9.60;;;;;;;9.96;82.63;98406.98;108896;1276;22518;-50
2024/02/07 14:07:45;;;;;;;31.50;11.20;;;;;;;9.93;82.59;98406.88;109555;1276;23133;-51
2024/02/07 14:10:13;;;;;;;9.00;5.20;;;;;;;9.93;82.57;98415.61;109746;1276;25855;-50
2024/02/07 14:12:41;;;;;;;7.70;3.80;;;;;;;9.93;82.73;98415.09;109164;1275;23622;-51
2024/02/07 14:15:11;;;;;;;10.10;3.80;;;;;;;9.91;82.99;98417.05;109726;1271;23356;-52
2024/02/07 14:17:40;;;;;;;6.10;3.50;;;;;;;9.89;83.21;98409.98;107151;1277;24209;-52
2024/02/07 14:20:10;;;;;;;7.70;3.30;;;;;;;9.85;83.58;98403.61;108426;1275;22148;-51
2024/02/07 14:22:37;;;;;;;7.40;3.90;;;;;;;9.82;84.39;98398.13;110246;1276;23157;-51
2024/02/07 14:25:08;;;;;;;7.80;3.60;;;;;;;9.76;85.16;98396.02;110112;1276;22717;-51
2024/02/07 14:27:36;;;;;;;8.00;3.70;;;;;;;9.70;86.15;98392.02;109581;1270;22578;-48
2024/02/07 14:30:05;;;;;;;7.30;3.50;;;;;;;9.63;87.11;98388.71;110053;1276;22331;-50
2024/02/07 14:32:32;;;;;;;7.30;4.30;;;;;;;9.58;87.68;98384.34;109891;1276;22518;-47
2024/02/07 14:35:00;;;;;;;8.30;4.10;;;;;;;9.53;88.23;98375.25;109961;1276;22298;-46
2024/02/07 14:37:29;;;;;;;7.60;3.90;;;;;;;9.48;88.39;98370.11;110223;1276;22881;-52
2024/02/07 14:39:57;;;;;;;7.10;3.40;;;;;;;9.46;88.77;98369.85;110085;1277;22261;-47
2024/02/07 14:42:24;;;;;;;7.10;3.20;;;;;;;9.42;89.08;98366.80;109467;1276;22530;-52
2024/02/07 14:44:52;;;;;;;9.00;4.40;;;;;;;9.37;89.27;98362.59;107181;1276;22550;-52
2024/02/07 14:47:20;;;;;;;11.30;3.90;;;;;;;9.32;89.01;98366.55;108511;1263;22534;-47
2024/02/07 14:49:47;;;;;;;9.10;4.70;;;;;;;9.29;88.82;98359.66;107454;1276;24228;-46
2024/02/07 14:52:16;;;;;;;11.90;5.20;;;;;;;9.26;88.54;98362.52;107618;1276;22322;-46
2024/02/07 14:54:44;;;;;;;9.40;4.00;;;;;;;9.25;88.50;98367.09;110270;1276;22262;-50
2024/02/07 14:57:12;;;;;;;7.10;3.60;;;;;;;9.24;88.52;98364.15;110029;1276;23863;-47
2024/02/07 14:59:40;;;;;;;8.40;4.00;;;;;;;9.22;88.71;98364.88;110114;1276;22363;-51
2024/02/07 15:02:11;;;;;;;7.90;4.40;;;;;;;9.20;88.89;98362.67;110046;1264;22271;-46
2024/02/07 15:04:39;;;;;;;7.40;4.50;;;;;;;9.17;88.79;98365.71;109992;1276;22267;-51
2024/02/07 15:07:07;;;;;;;8.40;3.90;;;;;;;9.15;88.52;98365.05;107755;1276;24690;-51
2024/02/07 15:09:35;;;;;;;8.00;4.50;;;;;;;9.14;88.42;98360.05;107364;1276;25325;-50
2024/02/07 15:12:06;;;;;;;10.40;4.30;;;;;;;9.13;88.58;98364.08;106747;1276;22527;-48
2024/02/07 15:14:34;;;;;;;11.50;4.60;;;;;;;9.11;88.40;98366.39;106984;1276;22533;-51
2024/02/07 15:17:02;;;;;;;10.90;5.00;;;;;;;9.10;88.21;98368.84;107087;1276;22550;-46
2024/02/07 15:19:30;;;;;;;9.60;4.50;;;;;;;9.08;88.35;98370.46;108273;1276;22294;-51
2024/02/07 15:21:58;;;;;;;7.60;3.80;;;;;;;9.04;88.37;98369.50;110155;1276;22290;-51
